Crown Princess — ZCDM6 — position and weather

sailwx.info

Track history (hours):
 
Tides and Currents Weather Stations Pressure Air Temp Water Temp Dewpoint Dewpoint Depression Visibility Wind Speed Wind Dir Waves Ship Positions

Crown Princess

Last reported at 2018-Jan-18 08:00 UTC. Time now 2018-Jan-18 17:38 UTC.
Position N 14°36' W 070°54'.

Type: Passenger vessel. MMSI: 310500000.

Wind from 080 at 28 knots

Barometer 1013.0 mb
Air temperature 26.5 ° C
Visibility: greater than 10.8 NM
Dewpoint 22.8 ° C
Water temperature 28.1 ° C

Date/timePositionNaut miles runAvg speedWind from/ knotsBaromVisibWave heightAir tempDewpointWater temp
2018-Jan-18 08:00N 14°36' W 070°54'213 8.9 080 / 281013.010.8 26.522.828.1
2018-Jan-17 08:00N 11°42' W 068°48'135 2.6 070 / 201012.010.8 26.023.426.4
2018-Jan-15 05:00N 13°24' W 070°18'   080 / 281011.910.8 26.524.928.5
2018-Jan-12 14:57N 26°06' W 080°07'0 0.0
2018-Jan-12 14:30N 26°06' W 080°07'0 0.0
2018-Jan-12 14:00N 26°06' W 080°07'0 0.0
2018-Jan-12 13:29N 26°06' W 080°07'0 0.0
2018-Jan-12 12:53N 26°06' W 080°07'0 0.0
2018-Jan-12 12:26N 26°06' W 080°07'0 0.0
2018-Jan-12 11:59N 26°06' W 080°07'0 0.1
2018-Jan-12 11:30N 26°06' W 080°07'3 5.1
2018-Jan-12 11:01N 26°06' W 080°04'5 8.8
2018-Jan-12 10:29N 26°06' W 079°59'612.9
2018-Jan-12 10:00N 26°02' W 079°54'917.4
2018-Jan-12 09:30N 25°54' W 079°49'1019.6
2018-Jan-12 09:00N 25°46' W 079°43'916.9
2018-Jan-12 08:30N 25°38' W 079°41'816.7
2018-Jan-12 08:00N 25°29' W 079°40'815.7
2018-Jan-12 07:30N 25°21' W 079°40'49315.8
2018-Jan-11 00:18N 20°36' W 086°56'413.4
2018-Jan-11 00:00N 20°32' W 086°58'4 7.3
2018-Jan-10 23:30N 20°29' W 086°59'0 0.1
2018-Jan-10 22:59N 20°29' W 086°59'0 0.0
2018-Jan-10 22:29N 20°29' W 086°59'0 0.0
2018-Jan-10 21:58N 20°29' W 086°59'0 0.0
2018-Jan-10 21:28N 20°29' W 086°59'0 0.0
2018-Jan-10 20:58N 20°29' W 086°59'0 0.0
2018-Jan-10 20:28N 20°29' W 086°59'0 0.0
2018-Jan-10 20:00N 20°29' W 086°59'0 0.0
2018-Jan-10 19:30N 20°29' W 086°59'0 0.0
2018-Jan-10 19:00N 20°29' W 086°59'0 0.0
2018-Jan-10 18:30N 20°29' W 086°59'0 0.0
2018-Jan-10 18:00N 20°29' W 086°59'0 0.0
2018-Jan-10 17:29N 20°29' W 086°59'0 0.0
2018-Jan-10 16:59N 20°29' W 086°59'0 0.0
2018-Jan-10 16:23N 20°29' W 086°59'0 0.0
2018-Jan-10 15:59N 20°29' W 086°59'0 0.0
2018-Jan-10 15:25N 20°29' W 086°59'0 0.0
2018-Jan-10 14:58N 20°29' W 086°59'0 0.0
2018-Jan-10 14:28N 20°29' W 086°59'0 0.0
2018-Jan-10 13:58N 20°29' W 086°59'0 0.2
2018-Jan-10 13:30N 20°29' W 086°59'3 5.4
2018-Jan-10 13:01N 20°30' W 087°01'  
Track history (hours):
 
Tides and Currents Weather Stations Pressure Air Temp Water Temp Dewpoint Dewpoint Depression Visibility Wind Speed Wind Dir Waves Ship Positions

Crown Princess

Last reported at 2018-Jan-18 08:00 UTC. Time now 2018-Jan-18 17:38 UTC.
Position N 14°36' W 070°54'.

Type: Passenger vessel. MMSI: 310500000.

Wind from 080 at 28 knots

Barometer 1013.0 mb
Air temperature 26.5 ° C
Visibility: greater than 10.8 NM
Dewpoint 22.8 ° C
Water temperature 28.1 ° C

Date/timePositionNaut miles runAvg speedWind from/ knotsBaromVisibWave heightAir tempDewpointWater temp
2018-Jan-18 08:00N 14°36' W 070°54'213 8.9 080 / 281013.010.8 26.522.828.1
2018-Jan-17 08:00N 11°42' W 068°48'135 2.6 070 / 201012.010.8 26.023.426.4
2018-Jan-15 05:00N 13°24' W 070°18'   080 / 281011.910.8 26.524.928.5
2018-Jan-12 14:57N 26°06' W 080°07'0 0.0
2018-Jan-12 14:30N 26°06' W 080°07'0 0.0
2018-Jan-12 14:00N 26°06' W 080°07'0 0.0
2018-Jan-12 13:29N 26°06' W 080°07'0 0.0
2018-Jan-12 12:53N 26°06' W 080°07'0 0.0
2018-Jan-12 12:26N 26°06' W 080°07'0 0.0
2018-Jan-12 11:59N 26°06' W 080°07'0 0.1
2018-Jan-12 11:30N 26°06' W 080°07'3 5.1
2018-Jan-12 11:01N 26°06' W 080°04'5 8.8
2018-Jan-12 10:29N 26°06' W 079°59'612.9
2018-Jan-12 10:00N 26°02' W 079°54'917.4
2018-Jan-12 09:30N 25°54' W 079°49'1019.6
2018-Jan-12 09:00N 25°46' W 079°43'916.9
2018-Jan-12 08:30N 25°38' W 079°41'816.7
2018-Jan-12 08:00N 25°29' W 079°40'815.7
2018-Jan-12 07:30N 25°21' W 079°40'49315.8
2018-Jan-11 00:18N 20°36' W 086°56'413.4
2018-Jan-11 00:00N 20°32' W 086°58'4 7.3
2018-Jan-10 23:30N 20°29' W 086°59'0 0.1
2018-Jan-10 22:59N 20°29' W 086°59'0 0.0
2018-Jan-10 22:29N 20°29' W 086°59'0 0.0
2018-Jan-10 21:58N 20°29' W 086°59'0 0.0
2018-Jan-10 21:28N 20°29' W 086°59'0 0.0
2018-Jan-10 20:58N 20°29' W 086°59'0 0.0
2018-Jan-10 20:28N 20°29' W 086°59'0 0.0
2018-Jan-10 20:00N 20°29' W 086°59'0 0.0
2018-Jan-10 19:30N 20°29' W 086°59'0 0.0
2018-Jan-10 19:00N 20°29' W 086°59'0 0.0
2018-Jan-10 18:30N 20°29' W 086°59'0 0.0
2018-Jan-10 18:00N 20°29' W 086°59'0 0.0
2018-Jan-10 17:29N 20°29' W 086°59'0 0.0
2018-Jan-10 16:59N 20°29' W 086°59'0 0.0
2018-Jan-10 16:23N 20°29' W 086°59'0 0.0
2018-Jan-10 15:59N 20°29' W 086°59'0 0.0
2018-Jan-10 15:25N 20°29' W 086°59'0 0.0
2018-Jan-10 14:58N 20°29' W 086°59'0 0.0
2018-Jan-10 14:28N 20°29' W 086°59'0 0.0
2018-Jan-10 13:58N 20°29' W 086°59'0 0.2
2018-Jan-10 13:30N 20°29' W 086°59'3 5.4
2018-Jan-10 13:01N 20°30' W 087°01'  

Dump ship's entire track history